Clipper Titan — C6V2055 — position and weather

sailwx.info

Track history (hours):
 
Tides and Currents Weather Stations Pressure Air Temp Water Temp Dewpoint Dewpoint Depression Visibility Wind Speed Wind Dir Waves Ship Positions

Clipper Titan

Last reported at 2014-Jul-29 02:33 UTC. Time now 2014-Jul-31 17:45 UTC.
Position N 38°47' W 014°18'.

Length 179 m; draft 9.4 m.

Type: Cargo ship. MMSI: 311008200.

Date/timePositionNaut miles runAvg speedWind from/ knotsBaromVisibWave heightAir tempDewpointWater temp
2014-Jul-29 02:33N 38°47' W 014°18'1110.5
2014-Jul-29 01:33N 38°37' W 014°11'1510.5
2014-Jul-29 00:09N 38°25' W 014°01'3311.0
2014-Jul-28 21:10N 37°60' W 013°34'811.0
2014-Jul-28 20:25N 37°54' W 013°27'12711.7
2014-Jul-28 09:33N 36°57' W 011°05'1211.2
2014-Jul-28 08:26N 36°52' W 010°50'1011.0
2014-Jul-28 07:32N 36°49' W 010°39'1110.9
2014-Jul-28 06:32N 36°45' W 010°26'1411.3
2014-Jul-28 05:20N 36°39' W 010°10'2411.4
2014-Jul-28 03:15N 36°31' W 009°43'811.5
2014-Jul-28 02:33N 36°28' W 009°34'1511.1
2014-Jul-28 01:11N 36°22' W 009°16'2110.7
2014-Jul-27 23:12N 36°14' W 008°52'710.9
2014-Jul-27 22:32N 36°11' W 008°44'1110.8
2014-Jul-27 21:31N 36°07' W 008°31'1111.0
2014-Jul-27 20:33N 36°03' W 008°19'1111.2
2014-Jul-27 19:33N 35°59' W 008°06'1511.4
2014-Jul-27 18:13N 35°59' W 007°47'1211.8
2014-Jul-27 17:11N 35°58' W 007°32'2311.5
2014-Jul-27 15:08N 35°57' W 007°03'711.3
2014-Jul-27 14:33N 35°58' W 006°55'327 8.3
2014-Jul-25 23:19N 36°49' W 000°14'12911.6
2014-Jul-25 12:11N 37°20' E 002°23'10611.8
2014-Jul-25 03:15N 37°39' E 004°34'912.2
2014-Jul-25 02:33N 37°38' E 004°45'1211.9
2014-Jul-25 01:33N 37°38' E 005°00'1312.9
2014-Jul-25 00:33N 37°38' E 005°16'1111.1
2014-Jul-24 23:33N 37°38' E 005°30'1212.3
2014-Jul-24 22:33N 37°39' E 005°46'1312.4
2014-Jul-24 21:30N 37°39' E 006°02'1212.8
2014-Jul-24 20:33N 37°39' E 006°18'2712.8
2014-Jul-24 18:26N 37°38' E 006°52'1311.6
2014-Jul-24 17:19N 37°38' E 007°08'2312.7
2014-Jul-24 15:30N 37°39' E 007°38'1111.5
2014-Jul-24 14:33N 37°39' E 007°51'1413.5
2014-Jul-24 13:32N 37°39' E 008°09'5112.9
2014-Jul-24 09:33N 37°39' E 009°13'17310.7
2014-Jul-23 17:29N 36°55' E 012°43'1011.0
2014-Jul-23 16:33N 36°52' E 012°55'1111.1
2014-Jul-23 15:33N 36°47' E 013°08'1110.7
2014-Jul-23 14:33N 36°43' E 013°20'1110.7
2014-Jul-23 13:34N 36°39' E 013°32'1110.5
2014-Jul-23 12:33N 36°36' E 013°45'1110.0
2014-Jul-23 11:27N 36°31' E 013°57'910.1
2014-Jul-23 10:33N 36°27' E 014°08'1010.1
2014-Jul-23 09:33N 36°24' E 014°19'46611.0
2014-Jul-21 15:15N 36°23' E 023°59'1412.0
2014-Jul-21 14:05N 36°30' E 024°14'1912.3
2014-Jul-21 12:33N 36°40' E 024°34'5 4.1
2014-Jul-21 11:16N 36°45' E 024°32'0 0.0
2014-Jul-21 09:19N 36°45' E 024°32'0 0.0
2014-Jul-21 08:28N 36°45' E 024°32'0 0.0
2014-Jul-21 07:22N 36°45' E 024°32'0 0.0
2014-Jul-21 06:16N 36°45' E 024°32'0 0.0
2014-Jul-21 04:04N 36°45' E 024°32'0 0.0
2014-Jul-21 02:22N 36°45' E 024°32'0 0.0
2014-Jul-21 01:04N 36°45' E 024°32'0 0.0
2014-Jul-21 00:16N 36°45' E 024°32'0 0.0
2014-Jul-20 22:28N 36°45' E 024°32'0 0.0
2014-Jul-20 21:22N 36°45' E 024°32'0 0.0
2014-Jul-20 20:22N 36°45' E 024°32'0 0.0
2014-Jul-20 19:04N 36°45' E 024°32'0 0.0
2014-Jul-20 18:28N 36°45' E 024°32'0 0.0
2014-Jul-20 17:28N 36°45' E 024°32'0 0.0
2014-Jul-20 16:22N 36°45' E 024°32'0 0.0
2014-Jul-20 15:28N 36°45' E 024°32'0 0.0
2014-Jul-20 14:22N 36°45' E 024°32'0 0.0
2014-Jul-20 13:22N 36°45' E 024°32'0 0.0
2014-Jul-20 12:10N 36°45' E 024°32'0 0.0
2014-Jul-20 11:28N 36°45' E 024°32'0 0.0
2014-Jul-20 10:16N 36°45' E 024°32'0 0.0
2014-Jul-20 09:22N 36°45' E 024°32'0 0.0
2014-Jul-20 08:16N 36°45' E 024°32'0 0.0
2014-Jul-20 07:22N 36°45' E 024°32'0 0.0
2014-Jul-20 04:28N 36°45' E 024°32'0 0.0
2014-Jul-20 03:28N 36°45' E 024°32'0 0.0
2014-Jul-20 02:04N 36°45' E 024°32'0 0.1
2014-Jul-20 01:28N 36°45' E 024°32'0 0.0
2014-Jul-20 00:22N 36°45' E 024°32'0 0.0
2014-Jul-19 23:16N 36°45' E 024°32'0 0.0
2014-Jul-19 22:10N 36°45' E 024°32'0 0.0
2014-Jul-19 21:10N 36°45' E 024°32'0 0.0
2014-Jul-19 20:22N 36°45' E 024°32'0 0.0
2014-Jul-19 19:28N 36°45' E 024°32'0 0.0
2014-Jul-19 18:10N 36°45' E 024°32'0 0.0
2014-Jul-19 17:16N 36°45' E 024°32'0 0.0
2014-Jul-19 16:22N 36°45' E 024°32'0 0.0
2014-Jul-19 15:22N 36°45' E 024°32'0 0.0
2014-Jul-19 14:28N 36°45' E 024°32'0 0.0
2014-Jul-19 13:22N 36°45' E 024°32'0 0.0
2014-Jul-19 12:22N 36°45' E 024°32'0 0.0
2014-Jul-19 11:28N 36°45' E 024°32'0 0.0
2014-Jul-19 10:22N 36°45' E 024°32'0 0.0
2014-Jul-19 09:28N 36°45' E 024°32'0 0.0
2014-Jul-19 08:22N 36°45' E 024°32'0 0.0
2014-Jul-19 07:28N 36°45' E 024°32'0 0.0
2014-Jul-19 06:16N 36°45' E 024°32'0 0.0
2014-Jul-19 05:16N 36°45' E 024°32'0 0.0
2014-Jul-19 04:22N 36°45' E 024°32'0 0.0
2014-Jul-19 03:22N 36°45' E 024°32'  
Track history (hours):
 
Tides and Currents Weather Stations Pressure Air Temp Water Temp Dewpoint Dewpoint Depression Visibility Wind Speed Wind Dir Waves Ship Positions

Clipper Titan

Last reported at 2014-Jul-29 02:33 UTC. Time now 2014-Jul-31 17:45 UTC.
Position N 38°47' W 014°18'.

Length 179 m; draft 9.4 m.

Type: Cargo ship. MMSI: 311008200.

Date/timePositionNaut miles runAvg speedWind from/ knotsBaromVisibWave heightAir tempDewpointWater temp
2014-Jul-29 02:33N 38°47' W 014°18'1110.5
2014-Jul-29 01:33N 38°37' W 014°11'1510.5
2014-Jul-29 00:09N 38°25' W 014°01'3311.0
2014-Jul-28 21:10N 37°60' W 013°34'811.0
2014-Jul-28 20:25N 37°54' W 013°27'12711.7
2014-Jul-28 09:33N 36°57' W 011°05'1211.2
2014-Jul-28 08:26N 36°52' W 010°50'1011.0
2014-Jul-28 07:32N 36°49' W 010°39'1110.9
2014-Jul-28 06:32N 36°45' W 010°26'1411.3
2014-Jul-28 05:20N 36°39' W 010°10'2411.4
2014-Jul-28 03:15N 36°31' W 009°43'811.5
2014-Jul-28 02:33N 36°28' W 009°34'1511.1
2014-Jul-28 01:11N 36°22' W 009°16'2110.7
2014-Jul-27 23:12N 36°14' W 008°52'710.9
2014-Jul-27 22:32N 36°11' W 008°44'1110.8
2014-Jul-27 21:31N 36°07' W 008°31'1111.0
2014-Jul-27 20:33N 36°03' W 008°19'1111.2
2014-Jul-27 19:33N 35°59' W 008°06'1511.4
2014-Jul-27 18:13N 35°59' W 007°47'1211.8
2014-Jul-27 17:11N 35°58' W 007°32'2311.5
2014-Jul-27 15:08N 35°57' W 007°03'711.3
2014-Jul-27 14:33N 35°58' W 006°55'327 8.3
2014-Jul-25 23:19N 36°49' W 000°14'12911.6
2014-Jul-25 12:11N 37°20' E 002°23'10611.8
2014-Jul-25 03:15N 37°39' E 004°34'912.2
2014-Jul-25 02:33N 37°38' E 004°45'1211.9
2014-Jul-25 01:33N 37°38' E 005°00'1312.9
2014-Jul-25 00:33N 37°38' E 005°16'1111.1
2014-Jul-24 23:33N 37°38' E 005°30'1212.3
2014-Jul-24 22:33N 37°39' E 005°46'1312.4
2014-Jul-24 21:30N 37°39' E 006°02'1212.8
2014-Jul-24 20:33N 37°39' E 006°18'2712.8
2014-Jul-24 18:26N 37°38' E 006°52'1311.6
2014-Jul-24 17:19N 37°38' E 007°08'2312.7
2014-Jul-24 15:30N 37°39' E 007°38'1111.5
2014-Jul-24 14:33N 37°39' E 007°51'1413.5
2014-Jul-24 13:32N 37°39' E 008°09'5112.9
2014-Jul-24 09:33N 37°39' E 009°13'17310.7
2014-Jul-23 17:29N 36°55' E 012°43'1011.0
2014-Jul-23 16:33N 36°52' E 012°55'1111.1
2014-Jul-23 15:33N 36°47' E 013°08'1110.7
2014-Jul-23 14:33N 36°43' E 013°20'1110.7
2014-Jul-23 13:34N 36°39' E 013°32'1110.5
2014-Jul-23 12:33N 36°36' E 013°45'1110.0
2014-Jul-23 11:27N 36°31' E 013°57'910.1
2014-Jul-23 10:33N 36°27' E 014°08'1010.1
2014-Jul-23 09:33N 36°24' E 014°19'46611.0
2014-Jul-21 15:15N 36°23' E 023°59'1412.0
2014-Jul-21 14:05N 36°30' E 024°14'1912.3
2014-Jul-21 12:33N 36°40' E 024°34'5 4.1
2014-Jul-21 11:16N 36°45' E 024°32'0 0.0
2014-Jul-21 09:19N 36°45' E 024°32'0 0.0
2014-Jul-21 08:28N 36°45' E 024°32'0 0.0
2014-Jul-21 07:22N 36°45' E 024°32'0 0.0
2014-Jul-21 06:16N 36°45' E 024°32'0 0.0
2014-Jul-21 04:04N 36°45' E 024°32'0 0.0
2014-Jul-21 02:22N 36°45' E 024°32'0 0.0
2014-Jul-21 01:04N 36°45' E 024°32'0 0.0
2014-Jul-21 00:16N 36°45' E 024°32'0 0.0
2014-Jul-20 22:28N 36°45' E 024°32'0 0.0
2014-Jul-20 21:22N 36°45' E 024°32'0 0.0
2014-Jul-20 20:22N 36°45' E 024°32'0 0.0
2014-Jul-20 19:04N 36°45' E 024°32'0 0.0
2014-Jul-20 18:28N 36°45' E 024°32'0 0.0
2014-Jul-20 17:28N 36°45' E 024°32'0 0.0
2014-Jul-20 16:22N 36°45' E 024°32'0 0.0
2014-Jul-20 15:28N 36°45' E 024°32'0 0.0
2014-Jul-20 14:22N 36°45' E 024°32'0 0.0
2014-Jul-20 13:22N 36°45' E 024°32'0 0.0
2014-Jul-20 12:10N 36°45' E 024°32'0 0.0
2014-Jul-20 11:28N 36°45' E 024°32'0 0.0
2014-Jul-20 10:16N 36°45' E 024°32'0 0.0
2014-Jul-20 09:22N 36°45' E 024°32'0 0.0
2014-Jul-20 08:16N 36°45' E 024°32'0 0.0
2014-Jul-20 07:22N 36°45' E 024°32'0 0.0
2014-Jul-20 04:28N 36°45' E 024°32'0 0.0
2014-Jul-20 03:28N 36°45' E 024°32'0 0.0
2014-Jul-20 02:04N 36°45' E 024°32'0 0.1
2014-Jul-20 01:28N 36°45' E 024°32'0 0.0
2014-Jul-20 00:22N 36°45' E 024°32'0 0.0
2014-Jul-19 23:16N 36°45' E 024°32'0 0.0
2014-Jul-19 22:10N 36°45' E 024°32'0 0.0
2014-Jul-19 21:10N 36°45' E 024°32'0 0.0
2014-Jul-19 20:22N 36°45' E 024°32'0 0.0
2014-Jul-19 19:28N 36°45' E 024°32'0 0.0
2014-Jul-19 18:10N 36°45' E 024°32'0 0.0
2014-Jul-19 17:16N 36°45' E 024°32'0 0.0
2014-Jul-19 16:22N 36°45' E 024°32'0 0.0
2014-Jul-19 15:22N 36°45' E 024°32'0 0.0
2014-Jul-19 14:28N 36°45' E 024°32'0 0.0
2014-Jul-19 13:22N 36°45' E 024°32'0 0.0
2014-Jul-19 12:22N 36°45' E 024°32'0 0.0
2014-Jul-19 11:28N 36°45' E 024°32'0 0.0
2014-Jul-19 10:22N 36°45' E 024°32'0 0.0
2014-Jul-19 09:28N 36°45' E 024°32'0 0.0
2014-Jul-19 08:22N 36°45' E 024°32'0 0.0
2014-Jul-19 07:28N 36°45' E 024°32'0 0.0
2014-Jul-19 06:16N 36°45' E 024°32'0 0.0
2014-Jul-19 05:16N 36°45' E 024°32'0 0.0
2014-Jul-19 04:22N 36°45' E 024°32'0 0.0
2014-Jul-19 03:22N 36°45' E 024°32'  

Dump ship's entire track history